sensor_id;sensor_type;location;lat;lon;timestamp;temperature;humidity
67750;DHT22;54550;48.838;8.828;2023-06-19T00:02:02;20.10;88.50
67750;DHT22;54550;48.838;8.828;2023-06-19T00:04:28;20.20;88.30
67750;DHT22;54550;48.838;8.828;2023-06-19T00:06:54;20.20;88.80
67750;DHT22;54550;48.838;8.828;2023-06-19T00:09:20;20.20;88.80
67750;DHT22;54550;48.838;8.828;2023-06-19T00:11:45;20.10;89.00
67750;DHT22;54550;48.838;8.828;2023-06-19T00:14:11;20.10;88.90
67750;DHT22;54550;48.838;8.828;2023-06-19T00:16:37;20.00;89.40
67750;DHT22;54550;48.838;8.828;2023-06-19T00:19:02;20.00;90.00
67750;DHT22;54550;48.838;8.828;2023-06-19T00:21:29;19.90;90.10
67750;DHT22;54550;48.838;8.828;2023-06-19T00:23:55;19.80;90.30
67750;DHT22;54550;48.838;8.828;2023-06-19T00:26:21;19.80;90.30
67750;DHT22;54550;48.838;8.828;2023-06-19T00:28:53;19.70;90.40
67750;DHT22;54550;48.838;8.828;2023-06-19T00:31:19;19.70;90.60
67750;DHT22;54550;48.838;8.828;2023-06-19T00:33:45;19.60;90.80
67750;DHT22;54550;48.838;8.828;2023-06-19T00:36:14;19.60;91.10
67750;DHT22;54550;48.838;8.828;2023-06-19T00:38:40;19.70;91.00
67750;DHT22;54550;48.838;8.828;2023-06-19T00:41:06;19.70;91.10
67750;DHT22;54550;48.838;8.828;2023-06-19T00:43:32;19.70;91.10
67750;DHT22;54550;48.838;8.828;2023-06-19T00:45:59;19.70;91.80
67750;DHT22;54550;48.838;8.828;2023-06-19T00:48:27;20.00;91.60
67750;DHT22;54550;48.838;8.828;2023-06-19T00:50:54;20.50;91.50
67750;DHT22;54550;48.838;8.828;2023-06-19T00:53:21;21.00;91.20
67750;DHT22;54550;48.838;8.828;2023-06-19T00:55:48;21.20;91.30
67750;DHT22;54550;48.838;8.828;2023-06-19T00:58:15;21.30;91.30
67750;DHT22;54550;48.838;8.828;2023-06-19T01:00:40;21.30;91.40
67750;DHT22;54550;48.838;8.828;2023-06-19T01:03:06;21.30;91.50
67750;DHT22;54550;48.838;8.828;2023-06-19T01:05:32;21.30;91.70
67750;DHT22;54550;48.838;8.828;2023-06-19T01:07:59;21.20;91.90
67750;DHT22;54550;48.838;8.828;2023-06-19T01:10:30;21.20;92.30
67750;DHT22;54550;48.838;8.828;2023-06-19T01:13:05;21.10;92.40
67750;DHT22;54550;48.838;8.828;2023-06-19T01:15:32;21.10;92.90
67750;DHT22;54550;48.838;8.828;2023-06-19T01:17:58;21.00;93.60
67750;DHT22;54550;48.838;8.828;2023-06-19T01:20:25;20.90;94.70
67750;DHT22;54550;48.838;8.828;2023-06-19T01:22:51;20.80;95.30
67750;DHT22;54550;48.838;8.828;2023-06-19T01:25:16;20.70;96.00
67750;DHT22;54550;48.838;8.828;2023-06-19T01:27:42;20.60;96.80
67750;DHT22;54550;48.838;8.828;2023-06-19T01:30:09;20.50;97.40
67750;DHT22;54550;48.838;8.828;2023-06-19T01:35:31;20.40;98.40
67750;DHT22;54550;48.838;8.828;2023-06-19T01:37:58;20.30;98.90
67750;DHT22;54550;48.838;8.828;2023-06-19T01:40:25;20.20;99.40
67750;DHT22;54550;48.838;8.828;2023-06-19T01:42:53;20.20;99.90
67750;DHT22;54550;48.838;8.828;2023-06-19T01:45:20;20.20;99.90
67750;DHT22;54550;48.838;8.828;2023-06-19T01:47:46;20.20;99.90
67750;DHT22;54550;48.838;8.828;2023-06-19T01:50:11;20.20;99.90
67750;DHT22;54550;48.838;8.828;2023-06-19T01:52:38;20.20;99.90
67750;DHT22;54550;48.838;8.828;2023-06-19T01:55:04;20.20;99.90
67750;DHT22;54550;48.838;8.828;2023-06-19T01:57:30;20.20;99.90
67750;DHT22;54550;48.838;8.828;2023-06-19T01:59:56;20.20;99.90
67750;DHT22;54550;48.838;8.828;2023-06-19T02:02:21;20.20;99.90
67750;DHT22;54550;48.838;8.828;2023-06-19T02:04:47;20.30;99.90
67750;DHT22;54550;48.838;8.828;2023-06-19T02:07:13;20.30;99.90
67750;DHT22;54550;48.838;8.828;2023-06-19T02:09:38;20.40;99.90
67750;DHT22;54550;48.838;8.828;2023-06-19T02:12:05;20.40;99.90
67750;DHT22;54550;48.838;8.828;2023-06-19T02:14:30;20.30;99.90
67750;DHT22;54550;48.838;8.828;2023-06-19T02:16:56;20.00;99.90
67750;DHT22;54550;48.838;8.828;2023-06-19T02:19:21;19.60;99.90
67750;DHT22;54550;48.838;8.828;2023-06-19T02:21:47;19.30;99.90
67750;DHT22;54550;48.838;8.828;2023-06-19T02:24:13;18.90;99.90
67750;DHT22;54550;48.838;8.828;2023-06-19T02:26:38;18.60;99.90
67750;DHT22;54550;48.838;8.828;2023-06-19T02:29:04;18.30;99.90
67750;DHT22;54550;48.838;8.828;2023-06-19T02:31:30;18.00;99.90
67750;DHT22;54550;48.838;8.828;2023-06-19T02:33:55;17.80;99.90
67750;DHT22;54550;48.838;8.828;2023-06-19T02:36:21;17.60;99.90
67750;DHT22;54550;48.838;8.828;2023-06-19T02:38:47;17.50;99.90
67750;DHT22;54550;48.838;8.828;2023-06-19T02:41:13;17.60;99.90
67750;DHT22;54550;48.838;8.828;2023-06-19T02:43:40;17.60;99.90
67750;DHT22;54550;48.838;8.828;2023-06-19T02:46:06;17.60;99.90
67750;DHT22;54550;48.838;8.828;2023-06-19T02:48:31;17.60;99.90
67750;DHT22;54550;48.838;8.828;2023-06-19T02:50:57;17.70;99.90
67750;DHT22;54550;48.838;8.828;2023-06-19T02:53:23;17.80;99.90
67750;DHT22;54550;48.838;8.828;2023-06-19T02:55:48;17.80;99.90
67750;DHT22;54550;48.838;8.828;2023-06-19T02:58:14;17.90;99.90
67750;DHT22;54550;48.838;8.828;2023-06-19T03:00:39;18.10;99.90
67750;DHT22;54550;48.838;8.828;2023-06-19T03:03:05;18.20;99.90
67750;DHT22;54550;48.838;8.828;2023-06-19T03:05:31;18.30;99.90
67750;DHT22;54550;48.838;8.828;2023-06-19T03:07:56;18.40;99.90
67750;DHT22;54550;48.838;8.828;2023-06-19T03:10:22;18.40;99.90
67750;DHT22;54550;48.838;8.828;2023-06-19T03:12:47;18.50;99.90
67750;DHT22;54550;48.838;8.828;2023-06-19T03:15:13;18.50;99.90
67750;DHT22;54550;48.838;8.828;2023-06-19T03:17:39;18.60;99.90
67750;DHT22;54550;48.838;8.828;2023-06-19T03:20:05;18.60;99.90
67750;DHT22;54550;48.838;8.828;2023-06-19T03:22:31;18.60;99.90
67750;DHT22;54550;48.838;8.828;2023-06-19T03:24:57;18.60;99.90
67750;DHT22;54550;48.838;8.828;2023-06-19T03:27:22;18.70;99.90
67750;DHT22;54550;48.838;8.828;2023-06-19T03:29:50;18.70;99.90
67750;DHT22;54550;48.838;8.828;2023-06-19T03:32:15;18.70;99.90
67750;DHT22;54550;48.838;8.828;2023-06-19T03:34:42;18.70;99.90
67750;DHT22;54550;48.838;8.828;2023-06-19T03:37:07;18.70;99.90
67750;DHT22;54550;48.838;8.828;2023-06-19T03:39:33;18.80;99.90
67750;DHT22;54550;48.838;8.828;2023-06-19T03:41:58;18.80;99.90
67750;DHT22;54550;48.838;8.828;2023-06-19T03:44:24;18.80;99.90
67750;DHT22;54550;48.838;8.828;2023-06-19T03:46:49;18.80;99.90
67750;DHT22;54550;48.838;8.828;2023-06-19T03:49:16;18.70;99.90
67750;DHT22;54550;48.838;8.828;2023-06-19T03:51:42;18.80;99.90
67750;DHT22;54550;48.838;8.828;2023-06-19T03:54:08;19.00;99.90
67750;DHT22;54550;48.838;8.828;2023-06-19T03:56:33;19.10;99.90
67750;DHT22;54550;48.838;8.828;2023-06-19T03:58:59;19.20;99.90
67750;DHT22;54550;48.838;8.828;2023-06-19T04:01:24;19.10;99.90
67750;DHT22;54550;48.838;8.828;2023-06-19T04:03:50;19.10;99.90
67750;DHT22;54550;48.838;8.828;2023-06-19T04:06:15;19.00;99.90
67750;DHT22;54550;48.838;8.828;2023-06-19T04:08:41;19.00;99.90
67750;DHT22;54550;48.838;8.828;2023-06-19T04:11:07;18.90;99.90
67750;DHT22;54550;48.838;8.828;2023-06-19T04:13:32;18.90;99.90
67750;DHT22;54550;48.838;8.828;2023-06-19T04:15:58;19.00;99.90
67750;DHT22;54550;48.838;8.828;2023-06-19T04:18:23;19.00;99.90
67750;DHT22;54550;48.838;8.828;2023-06-19T04:20:49;19.10;99.90
67750;DHT22;54550;48.838;8.828;2023-06-19T04:23:14;19.10;99.90
67750;DHT22;54550;48.838;8.828;2023-06-19T04:25:40;19.20;99.90
67750;DHT22;54550;48.838;8.828;2023-06-19T04:28:05;19.30;99.90
67750;DHT22;54550;48.838;8.828;2023-06-19T04:30:31;19.30;99.90
67750;DHT22;54550;48.838;8.828;2023-06-19T04:32:58;19.30;99.90
67750;DHT22;54550;48.838;8.828;2023-06-19T04:35:24;19.40;99.90
67750;DHT22;54550;48.838;8.828;2023-06-19T04:37:49;19.50;99.90
67750;DHT22;54550;48.838;8.828;2023-06-19T04:40:15;19.60;99.90
67750;DHT22;54550;48.838;8.828;2023-06-19T04:42:41;19.80;99.90
67750;DHT22;54550;48.838;8.828;2023-06-19T04:45:07;19.70;99.90
67750;DHT22;54550;48.838;8.828;2023-06-19T04:47:33;19.60;99.90
67750;DHT22;54550;48.838;8.828;2023-06-19T04:49:59;19.50;99.90
67750;DHT22;54550;48.838;8.828;2023-06-19T04:52:25;19.50;99.90
67750;DHT22;54550;48.838;8.828;2023-06-19T04:54:51;19.50;99.90
67750;DHT22;54550;48.838;8.828;2023-06-19T04:57:16;19.60;99.90
67750;DHT22;54550;48.838;8.828;2023-06-19T04:59:45;19.60;99.90
67750;DHT22;54550;48.838;8.828;2023-06-19T05:02:11;19.60;99.90
67750;DHT22;54550;48.838;8.828;2023-06-19T05:04:36;19.70;99.90
67750;DHT22;54550;48.838;8.828;2023-06-19T05:07:02;19.80;99.90
67750;DHT22;54550;48.838;8.828;2023-06-19T05:09:28;19.90;99.90
67750;DHT22;54550;48.838;8.828;2023-06-19T05:11:54;20.00;99.90
67750;DHT22;54550;48.838;8.828;2023-06-19T05:14:20;19.90;99.90
67750;DHT22;54550;48.838;8.828;2023-06-19T05:16:45;19.90;99.90
67750;DHT22;54550;48.838;8.828;2023-06-19T05:19:11;19.90;99.90
67750;DHT22;54550;48.838;8.828;2023-06-19T05:21:36;20.10;99.90
67750;DHT22;54550;48.838;8.828;2023-06-19T05:24:02;20.40;99.90
67750;DHT22;54550;48.838;8.828;2023-06-19T05:26:28;20.80;99.90
67750;DHT22;54550;48.838;8.828;2023-06-19T05:28:53;21.20;99.90
67750;DHT22;54550;48.838;8.828;2023-06-19T05:31:19;21.20;99.90
67750;DHT22;54550;48.838;8.828;2023-06-19T05:33:45;21.20;99.90
67750;DHT22;54550;48.838;8.828;2023-06-19T05:36:11;21.10;99.90
67750;DHT22;54550;48.838;8.828;2023-06-19T05:38:36;21.10;99.90
67750;DHT22;54550;48.838;8.828;2023-06-19T05:41:02;21.10;99.90
67750;DHT22;54550;48.838;8.828;2023-06-19T05:43:28;20.90;99.90
67750;DHT22;54550;48.838;8.828;2023-06-19T05:45:54;20.90;99.90
67750;DHT22;54550;48.838;8.828;2023-06-19T05:48:25;20.90;99.90
67750;DHT22;54550;48.838;8.828;2023-06-19T05:50:51;20.90;99.90
67750;DHT22;54550;48.838;8.828;2023-06-19T05:53:17;20.90;99.90
67750;DHT22;54550;48.838;8.828;2023-06-19T05:55:42;20.90;99.90
67750;DHT22;54550;48.838;8.828;2023-06-19T05:58:08;20.80;99.90
67750;DHT22;54550;48.838;8.828;2023-06-19T06:00:34;20.70;99.90
67750;DHT22;54550;48.838;8.828;2023-06-19T06:03:00;20.70;99.90
67750;DHT22;54550;48.838;8.828;2023-06-19T06:05:26;20.80;99.90
67750;DHT22;54550;48.838;8.828;2023-06-19T06:07:52;20.80;99.90
67750;DHT22;54550;48.838;8.828;2023-06-19T06:10:20;20.80;99.90
67750;DHT22;54550;48.838;8.828;2023-06-19T06:12:46;20.80;99.90
67750;DHT22;54550;48.838;8.828;2023-06-19T06:15:11;20.70;99.90
67750;DHT22;54550;48.838;8.828;2023-06-19T06:17:37;20.80;99.90
67750;DHT22;54550;48.838;8.828;2023-06-19T06:20:03;20.80;99.90
67750;DHT22;54550;48.838;8.828;2023-06-19T06:22:34;20.90;99.90
67750;DHT22;54550;48.838;8.828;2023-06-19T06:25:00;20.90;99.90
67750;DHT22;54550;48.838;8.828;2023-06-19T06:27:25;21.10;99.90
67750;DHT22;54550;48.838;8.828;2023-06-19T06:29:51;21.40;99.90
67750;DHT22;54550;48.838;8.828;2023-06-19T06:32:17;21.30;99.90
67750;DHT22;54550;48.838;8.828;2023-06-19T06:34:44;21.20;99.90
67750;DHT22;54550;48.838;8.828;2023-06-19T06:37:09;21.20;99.90
67750;DHT22;54550;48.838;8.828;2023-06-19T06:39:35;21.20;99.90
67750;DHT22;54550;48.838;8.828;2023-06-19T06:42:01;21.20;99.90
67750;DHT22;54550;48.838;8.828;2023-06-19T06:44:26;21.20;99.90
67750;DHT22;54550;48.838;8.828;2023-06-19T06:46:52;21.30;99.90
67750;DHT22;54550;48.838;8.828;2023-06-19T06:49:17;21.40;99.90
67750;DHT22;54550;48.838;8.828;2023-06-19T06:51:43;21.50;99.90
67750;DHT22;54550;48.838;8.828;2023-06-19T06:54:09;21.90;99.90
67750;DHT22;54550;48.838;8.828;2023-06-19T06:56:35;22.70;99.90
67750;DHT22;54550;48.838;8.828;2023-06-19T06:59:01;23.70;99.90
67750;DHT22;54550;48.838;8.828;2023-06-19T07:01:27;24.30;99.90
67750;DHT22;54550;48.838;8.828;2023-06-19T07:03:52;23.80;99.90
67750;DHT22;54550;48.838;8.828;2023-06-19T07:06:19;23.80;99.90
67750;DHT22;54550;48.838;8.828;2023-06-19T07:08:44;24.20;99.90
67750;DHT22;54550;48.838;8.828;2023-06-19T07:11:13;24.70;99.90
67750;DHT22;54550;48.838;8.828;2023-06-19T07:13:38;25.10;99.90
67750;DHT22;54550;48.838;8.828;2023-06-19T07:16:05;25.10;99.90
67750;DHT22;54550;48.838;8.828;2023-06-19T07:18:30;25.70;99.90
67750;DHT22;54550;48.838;8.828;2023-06-19T07:20:56;25.40;99.90
67750;DHT22;54550;48.838;8.828;2023-06-19T07:23:22;24.90;99.90
67750;DHT22;54550;48.838;8.828;2023-06-19T07:25:47;24.30;99.90
67750;DHT22;54550;48.838;8.828;2023-06-19T07:28:14;24.00;99.90
67750;DHT22;54550;48.838;8.828;2023-06-19T07:30:40;24.50;99.90
67750;DHT22;54550;48.838;8.828;2023-06-19T07:33:06;25.40;99.90
67750;DHT22;54550;48.838;8.828;2023-06-19T07:35:34;26.60;99.50
67750;DHT22;54550;48.838;8.828;2023-06-19T07:38:00;27.30;98.10
67750;DHT22;54550;48.838;8.828;2023-06-19T07:40:25;27.60;97.00
67750;DHT22;54550;48.838;8.828;2023-06-19T07:42:51;27.50;96.80
67750;DHT22;54550;48.838;8.828;2023-06-19T07:45:16;27.80;96.30
67750;DHT22;54550;48.838;8.828;2023-06-19T07:47:42;27.80;95.80
67750;DHT22;54550;48.838;8.828;2023-06-19T07:50:08;28.50;94.70
67750;DHT22;54550;48.838;8.828;2023-06-19T07:52:33;28.50;94.70
67750;DHT22;54550;48.838;8.828;2023-06-19T07:54:59;28.10;94.40
67750;DHT22;54550;48.838;8.828;2023-06-19T07:57:25;27.70;95.40
67750;DHT22;54550;48.838;8.828;2023-06-19T07:59:53;27.40;95.50
67750;DHT22;54550;48.838;8.828;2023-06-19T08:02:19;26.80;95.80
67750;DHT22;54550;48.838;8.828;2023-06-19T08:04:45;26.80;95.20
67750;DHT22;54550;48.838;8.828;2023-06-19T08:07:11;27.60;96.20
67750;DHT22;54550;48.838;8.828;2023-06-19T08:09:37;27.40;95.70
67750;DHT22;54550;48.838;8.828;2023-06-19T08:12:03;27.70;95.80
67750;DHT22;54550;48.838;8.828;2023-06-19T08:14:28;28.10;94.80
67750;DHT22;54550;48.838;8.828;2023-06-19T08:16:54;28.50;94.70
67750;DHT22;54550;48.838;8.828;2023-06-19T08:19:20;29.10;94.20
67750;DHT22;54550;48.838;8.828;2023-06-19T08:21:46;29.00;93.70
67750;DHT22;54550;48.838;8.828;2023-06-19T08:24:11;29.20;93.60
67750;DHT22;54550;48.838;8.828;2023-06-19T08:26:37;29.00;94.20
67750;DHT22;54550;48.838;8.828;2023-06-19T08:29:02;28.70;94.20
67750;DHT22;54550;48.838;8.828;2023-06-19T08:31:28;28.60;93.90
67750;DHT22;54550;48.838;8.828;2023-06-19T08:33:55;28.30;93.90
67750;DHT22;54550;48.838;8.828;2023-06-19T08:36:20;27.40;95.20
67750;DHT22;54550;48.838;8.828;2023-06-19T08:38:46;27.20;95.30
67750;DHT22;54550;48.838;8.828;2023-06-19T08:41:19;27.20;95.90
67750;DHT22;54550;48.838;8.828;2023-06-19T08:43:45;27.30;95.30
67750;DHT22;54550;48.838;8.828;2023-06-19T08:46:18;27.70;94.90
67750;DHT22;54550;48.838;8.828;2023-06-19T08:48:44;28.30;94.60
67750;DHT22;54550;48.838;8.828;2023-06-19T08:51:10;28.90;93.40
67750;DHT22;54550;48.838;8.828;2023-06-19T08:53:47;29.10;92.90
67750;DHT22;54550;48.838;8.828;2023-06-19T08:56:15;29.00;92.90
67750;DHT22;54550;48.838;8.828;2023-06-19T08:58:41;29.20;93.10
67750;DHT22;54550;48.838;8.828;2023-06-19T09:01:06;29.50;93.30
67750;DHT22;54550;48.838;8.828;2023-06-19T09:03:32;30.00;92.60
67750;DHT22;54550;48.838;8.828;2023-06-19T09:06:03;30.10;92.80
67750;DHT22;54550;48.838;8.828;2023-06-19T09:08:29;30.20;92.80
67750;DHT22;54550;48.838;8.828;2023-06-19T09:11:04;30.20;92.40
67750;DHT22;54550;48.838;8.828;2023-06-19T09:13:31;30.20;92.40
67750;DHT22;54550;48.838;8.828;2023-06-19T09:15:58;29.70;92.80
67750;DHT22;54550;48.838;8.828;2023-06-19T09:18:25;29.80;92.40
67750;DHT22;54550;48.838;8.828;2023-06-19T09:20:53;30.40;91.70
67750;DHT22;54550;48.838;8.828;2023-06-19T09:23:19;31.10;91.60
67750;DHT22;54550;48.838;8.828;2023-06-19T09:25:50;31.40;90.70
67750;DHT22;54550;48.838;8.828;2023-06-19T09:28:21;31.30;90.70
67750;DHT22;54550;48.838;8.828;2023-06-19T09:30:58;30.50;91.20
67750;DHT22;54550;48.838;8.828;2023-06-19T09:33:28;29.40;92.40
67750;DHT22;54550;48.838;8.828;2023-06-19T09:35:56;28.70;93.80
67750;DHT22;54550;48.838;8.828;2023-06-19T09:38:25;28.60;94.50
67750;DHT22;54550;48.838;8.828;2023-06-19T09:40:52;28.80;94.60
67750;DHT22;54550;48.838;8.828;2023-06-19T09:43:23;29.20;94.40
67750;DHT22;54550;48.838;8.828;2023-06-19T09:45:49;29.50;94.10
67750;DHT22;54550;48.838;8.828;2023-06-19T09:48:19;29.70;94.00
67750;DHT22;54550;48.838;8.828;2023-06-19T09:50:48;31.00;95.10
67750;DHT22;54550;48.838;8.828;2023-06-19T09:53:15;30.20;93.20
67750;DHT22;54550;48.838;8.828;2023-06-19T09:55:42;30.10;92.00
67750;DHT22;54550;48.838;8.828;2023-06-19T09:58:08;30.00;92.50
67750;DHT22;54550;48.838;8.828;2023-06-19T10:00:34;29.70;92.40
67750;DHT22;54550;48.838;8.828;2023-06-19T10:03:00;29.70;92.80
67750;DHT22;54550;48.838;8.828;2023-06-19T10:05:36;29.80;92.30
67750;DHT22;54550;48.838;8.828;2023-06-19T10:08:01;29.70;92.60
67750;DHT22;54550;48.838;8.828;2023-06-19T10:10:28;29.60;93.50
67750;DHT22;54550;48.838;8.828;2023-06-19T10:12:56;29.40;93.60
67750;DHT22;54550;48.838;8.828;2023-06-19T10:15:27;29.30;93.90
67750;DHT22;54550;48.838;8.828;2023-06-19T10:18:01;29.50;94.30
67750;DHT22;54550;48.838;8.828;2023-06-19T10:20:30;29.90;93.50
67750;DHT22;54550;48.838;8.828;2023-06-19T10:23:19;30.10;92.80
67750;DHT22;54550;48.838;8.828;2023-06-19T10:28:46;30.00;92.60
67750;DHT22;54550;48.838;8.828;2023-06-19T10:31:12;30.00;93.80
67750;DHT22;54550;48.838;8.828;2023-06-19T10:33:38;30.10;93.30
67750;DHT22;54550;48.838;8.828;2023-06-19T10:36:21;30.30;92.40
67750;DHT22;54550;48.838;8.828;2023-06-19T10:38:48;30.30;92.30
67750;DHT22;54550;48.838;8.828;2023-06-19T10:41:25;29.90;92.70
67750;DHT22;54550;48.838;8.828;2023-06-19T10:44:03;29.90;93.40
67750;DHT22;54550;48.838;8.828;2023-06-19T10:46:34;30.40;93.10
67750;DHT22;54550;48.838;8.828;2023-06-19T10:49:01;31.90;91.10
67750;DHT22;54550;48.838;8.828;2023-06-19T10:51:30;30.90;90.10
67750;DHT22;54550;48.838;8.828;2023-06-19T10:53:56;30.60;90.50
67750;DHT22;54550;48.838;8.828;2023-06-19T10:56:23;30.60;91.20
67750;DHT22;54550;48.838;8.828;2023-06-19T11:01:38;31.30;89.60
67750;DHT22;54550;48.838;8.828;2023-06-19T11:04:09;32.00;88.40
67750;DHT22;54550;48.838;8.828;2023-06-19T11:06:36;32.10;87.50
67750;DHT22;54550;48.838;8.828;2023-06-19T11:09:03;32.40;87.30
67750;DHT22;54550;48.838;8.828;2023-06-19T11:11:43;32.20;86.50
67750;DHT22;54550;48.838;8.828;2023-06-19T11:14:10;32.00;86.80
67750;DHT22;54550;48.838;8.828;2023-06-19T11:16:41;32.20;86.30
67750;DHT22;54550;48.838;8.828;2023-06-19T11:19:08;32.80;85.80
67750;DHT22;54550;48.838;8.828;2023-06-19T11:21:35;32.90;86.00
67750;DHT22;54550;48.838;8.828;2023-06-19T11:24:12;33.00;85.00
67750;DHT22;54550;48.838;8.828;2023-06-19T11:26:41;33.00;86.20
67750;DHT22;54550;48.838;8.828;2023-06-19T11:29:41;33.30;86.10
67750;DHT22;54550;48.838;8.828;2023-06-19T11:32:13;32.90;86.30
67750;DHT22;54550;48.838;8.828;2023-06-19T11:34:40;32.20;88.70
67750;DHT22;54550;48.838;8.828;2023-06-19T11:37:16;31.60;90.10
67750;DHT22;54550;48.838;8.828;2023-06-19T11:39:47;31.00;90.80
67750;DHT22;54550;48.838;8.828;2023-06-19T11:42:13;30.70;91.30
67750;DHT22;54550;48.838;8.828;2023-06-19T11:45:01;30.40;91.00
67750;DHT22;54550;48.838;8.828;2023-06-19T11:47:32;30.50;91.40
67750;DHT22;54550;48.838;8.828;2023-06-19T11:49:58;30.80;90.80
67750;DHT22;54550;48.838;8.828;2023-06-19T11:52:24;31.20;90.60
67750;DHT22;54550;48.838;8.828;2023-06-19T11:54:50;31.70;90.90
67750;DHT22;54550;48.838;8.828;2023-06-19T11:57:15;31.60;90.50
67750;DHT22;54550;48.838;8.828;2023-06-19T11:59:41;31.90;91.00
67750;DHT22;54550;48.838;8.828;2023-06-19T12:02:07;32.30;90.90
67750;DHT22;54550;48.838;8.828;2023-06-19T12:04:34;32.40;90.60
67750;DHT22;54550;48.838;8.828;2023-06-19T12:07:00;32.50;90.30
67750;DHT22;54550;48.838;8.828;2023-06-19T12:09:26;32.80;88.60
67750;DHT22;54550;48.838;8.828;2023-06-19T12:11:51;33.60;88.70
67750;DHT22;54550;48.838;8.828;2023-06-19T12:14:17;33.70;88.30
67750;DHT22;54550;48.838;8.828;2023-06-19T12:16:45;34.10;87.80
67750;DHT22;54550;48.838;8.828;2023-06-19T12:19:11;34.40;86.70
67750;DHT22;54550;48.838;8.828;2023-06-19T12:21:37;35.00;87.20
67750;DHT22;54550;48.838;8.828;2023-06-19T12:24:02;35.10;86.20
67750;DHT22;54550;48.838;8.828;2023-06-19T12:26:28;35.20;84.90
67750;DHT22;54550;48.838;8.828;2023-06-19T12:28:54;35.50;84.80
67750;DHT22;54550;48.838;8.828;2023-06-19T12:31:19;35.30;85.20
67750;DHT22;54550;48.838;8.828;2023-06-19T12:33:45;35.60;84.30
67750;DHT22;54550;48.838;8.828;2023-06-19T12:36:13;36.00;84.10
67750;DHT22;54550;48.838;8.828;2023-06-19T12:38:39;36.00;84.20
67750;DHT22;54550;48.838;8.828;2023-06-19T12:41:05;36.30;82.00
67750;DHT22;54550;48.838;8.828;2023-06-19T12:43:31;36.30;83.60
67750;DHT22;54550;48.838;8.828;2023-06-19T12:46:00;36.40;82.50
67750;DHT22;54550;48.838;8.828;2023-06-19T12:48:26;36.30;84.00
67750;DHT22;54550;48.838;8.828;2023-06-19T12:50:52;36.50;82.40
67750;DHT22;54550;48.838;8.828;2023-06-19T12:53:18;36.10;82.40
67750;DHT22;54550;48.838;8.828;2023-06-19T12:55:43;35.80;82.20
67750;DHT22;54550;48.838;8.828;2023-06-19T12:58:09;35.50;83.50
67750;DHT22;54550;48.838;8.828;2023-06-19T13:00:37;35.90;83.30
67750;DHT22;54550;48.838;8.828;2023-06-19T13:03:02;36.20;81.50
67750;DHT22;54550;48.838;8.828;2023-06-19T13:05:28;36.20;81.20
67750;DHT22;54550;48.838;8.828;2023-06-19T13:07:54;35.20;82.40
67750;DHT22;54550;48.838;8.828;2023-06-19T13:10:20;34.40;83.80
67750;DHT22;54550;48.838;8.828;2023-06-19T13:12:45;33.60;85.20
67750;DHT22;54550;48.838;8.828;2023-06-19T13:15:11;33.00;86.40
67750;DHT22;54550;48.838;8.828;2023-06-19T13:17:37;32.60;88.50
67750;DHT22;54550;48.838;8.828;2023-06-19T13:20:02;31.60;88.60
67750;DHT22;54550;48.838;8.828;2023-06-19T13:22:30;30.70;90.10
67750;DHT22;54550;48.838;8.828;2023-06-19T13:24:56;30.80;90.50
67750;DHT22;54550;48.838;8.828;2023-06-19T13:27:21;30.70;90.20
67750;DHT22;54550;48.838;8.828;2023-06-19T13:29:47;30.50;90.80
67750;DHT22;54550;48.838;8.828;2023-06-19T13:32:12;30.00;91.70
67750;DHT22;54550;48.838;8.828;2023-06-19T13:34:38;30.10;91.60
67750;DHT22;54550;48.838;8.828;2023-06-19T13:37:03;30.20;91.10
67750;DHT22;54550;48.838;8.828;2023-06-19T13:39:29;30.80;90.90
67750;DHT22;54550;48.838;8.828;2023-06-19T13:41:55;30.80;90.90
67750;DHT22;54550;48.838;8.828;2023-06-19T13:44:21;30.50;91.00
67750;DHT22;54550;48.838;8.828;2023-06-19T13:46:47;30.90;91.60
67750;DHT22;54550;48.838;8.828;2023-06-19T13:49:12;31.70;91.20
67750;DHT22;54550;48.838;8.828;2023-06-19T13:51:39;31.90;90.50
67750;DHT22;54550;48.838;8.828;2023-06-19T13:54:05;31.50;91.10
67750;DHT22;54550;48.838;8.828;2023-06-19T13:56:31;31.30;91.50
67750;DHT22;54550;48.838;8.828;2023-06-19T13:58:58;31.70;91.50
67750;DHT22;54550;48.838;8.828;2023-06-19T14:01:23;31.90;90.80
67750;DHT22;54550;48.838;8.828;2023-06-19T14:03:50;31.90;90.70
67750;DHT22;54550;48.838;8.828;2023-06-19T14:06:16;31.60;90.90
67750;DHT22;54550;48.838;8.828;2023-06-19T14:08:42;31.20;91.30
67750;DHT22;54550;48.838;8.828;2023-06-19T14:11:08;30.80;91.60
67750;DHT22;54550;48.838;8.828;2023-06-19T14:13:33;30.90;91.70
67750;DHT22;54550;48.838;8.828;2023-06-19T14:15:59;30.70;92.10
67750;DHT22;54550;48.838;8.828;2023-06-19T14:18:25;30.30;92.60
67750;DHT22;54550;48.838;8.828;2023-06-19T14:20:50;30.00;92.70
67750;DHT22;54550;48.838;8.828;2023-06-19T14:23:16;30.20;92.90
67750;DHT22;54550;48.838;8.828;2023-06-19T14:25:41;30.50;92.80
67750;DHT22;54550;48.838;8.828;2023-06-19T14:28:07;30.30;92.60
67750;DHT22;54550;48.838;8.828;2023-06-19T14:30:33;30.40;93.00
67750;DHT22;54550;48.838;8.828;2023-06-19T14:32:58;30.70;92.50
67750;DHT22;54550;48.838;8.828;2023-06-19T14:35:24;31.50;91.90
67750;DHT22;54550;48.838;8.828;2023-06-19T14:37:49;32.00;91.50
67750;DHT22;54550;48.838;8.828;2023-06-19T14:40:15;32.10;91.10
67750;DHT22;54550;48.838;8.828;2023-06-19T14:42:41;32.60;90.70
67750;DHT22;54550;48.838;8.828;2023-06-19T14:45:06;32.90;90.90
67750;DHT22;54550;48.838;8.828;2023-06-19T14:47:32;34.10;89.80
67750;DHT22;54550;48.838;8.828;2023-06-19T14:49:58;34.30;88.30
67750;DHT22;54550;48.838;8.828;2023-06-19T14:52:24;33.60;89.30
67750;DHT22;54550;48.838;8.828;2023-06-19T14:54:50;32.60;90.10
67750;DHT22;54550;48.838;8.828;2023-06-19T14:57:16;32.50;90.70
67750;DHT22;54550;48.838;8.828;2023-06-19T14:59:41;32.40;91.20
67750;DHT22;54550;48.838;8.828;2023-06-19T15:02:07;31.50;91.60
67750;DHT22;54550;48.838;8.828;2023-06-19T15:04:33;30.50;92.60
67750;DHT22;54550;48.838;8.828;2023-06-19T15:06:59;29.80;93.50
67750;DHT22;54550;48.838;8.828;2023-06-19T15:09:25;29.20;94.10
67750;DHT22;54550;48.838;8.828;2023-06-19T15:11:51;28.80;95.30
67750;DHT22;54550;48.838;8.828;2023-06-19T15:14:17;28.10;98.70
67750;DHT22;54550;48.838;8.828;2023-06-19T15:16:43;26.60;99.90
67750;DHT22;54550;48.838;8.828;2023-06-19T15:19:08;24.80;99.90
67750;DHT22;54550;48.838;8.828;2023-06-19T15:21:34;23.60;99.90
67750;DHT22;54550;48.838;8.828;2023-06-19T15:23:59;22.80;99.90
67750;DHT22;54550;48.838;8.828;2023-06-19T15:26:25;22.60;99.90
67750;DHT22;54550;48.838;8.828;2023-06-19T15:28:50;23.30;99.90
67750;DHT22;54550;48.838;8.828;2023-06-19T15:31:20;24.20;99.90
67750;DHT22;54550;48.838;8.828;2023-06-19T15:33:46;25.60;99.90
67750;DHT22;54550;48.838;8.828;2023-06-19T15:36:11;26.50;99.90